createdAt,value
2023-01-21T00:01:30.319Z,99140.81
2023-01-21T00:04:07.827Z,99131.19
2023-01-21T00:06:45.903Z,99142.19
2023-01-21T00:09:30.622Z,99139.88
2023-01-21T00:12:20.253Z,99142.84
2023-01-21T00:14:58.693Z,99136.81
2023-01-21T00:17:45.359Z,99143.47
2023-01-21T00:20:26.524Z,99143.81
2023-01-21T00:23:01.619Z,99138.50
2023-01-21T00:25:56.166Z,99136.97
2023-01-21T00:28:46.835Z,99136.16
2023-01-21T00:31:21.856Z,99137.84
2023-01-21T00:34:05.378Z,99130.31
2023-01-21T00:36:41.464Z,99137.84
2023-01-21T00:39:28.115Z,99144.47
2023-01-21T00:42:06.553Z,99146.63
2023-01-21T00:44:51.982Z,99143.13
2023-01-21T00:47:45.223Z,99136.97
2023-01-21T00:50:23.610Z,99142.84
2023-01-21T00:53:07.469Z,99147.97
2023-01-21T00:55:44.977Z,99145.78
2023-01-21T00:58:23.375Z,99151.63
2023-01-21T01:01:18.325Z,99149.28
2023-01-21T01:03:58.671Z,99148.16
2023-01-21T01:06:39.275Z,99142.84
2023-01-21T01:09:26.997Z,99151.78
2023-01-21T01:12:04.811Z,99148.19
2023-01-21T01:14:45.735Z,99144.88
2023-01-21T01:17:26.155Z,99161.25
2023-01-21T01:20:02.080Z,99157.81
2023-01-21T01:22:41.931Z,99157.28
2023-01-21T01:25:33.096Z,99155.78
2023-01-21T01:28:19.669Z,99154.78
2023-01-21T01:30:56.013Z,99158.91
2023-01-21T01:33:39.221Z,99157.47
2023-01-21T01:36:16.542Z,99161.44
2023-01-21T01:38:52.450Z,99157.28
2023-01-21T01:41:32.242Z,99150.47
2023-01-21T01:44:45.431Z,99148.16
2023-01-21T01:47:26.107Z,99155.13
2023-01-21T01:50:02.642Z,99166.75
2023-01-21T01:52:46.247Z,99160.94
2023-01-21T01:55:27.293Z,99159.63
2023-01-21T01:58:01.240Z,99146.16
2023-01-21T02:00:41.885Z,99146.00
2023-01-21T02:03:33.657Z,99148.16
2023-01-21T02:06:11.829Z,99145.19
2023-01-21T02:08:53.033Z,99134.53
2023-01-21T02:11:31.003Z,99132.03
2023-01-21T02:14:08.975Z,99133.69
2023-01-21T02:16:52.754Z,99134.31
2023-01-21T02:19:42.487Z,99136.81
2023-01-21T02:22:53.007Z,99138.81
2023-01-21T02:25:47.701Z,99135.41
2023-01-21T02:29:17.343Z,99135.97
2023-01-21T02:32:11.286Z,99129.00
2023-01-21T02:35:03.050Z,99127.44
2023-01-21T02:38:37.580Z,99128.81
2023-01-21T02:41:51.632Z,99142.47
2023-01-21T02:44:36.818Z,99138.28
2023-01-21T02:47:31.231Z,99127.63
2023-01-21T02:50:22.151Z,99135.81
2023-01-21T02:53:04.880Z,99136.13
2023-01-21T02:55:48.595Z,99141.75
2023-01-21T02:58:31.560Z,99141.75
2023-01-21T03:01:12.955Z,99151.72
2023-01-21T03:04:00.290Z,99150.41
2023-01-21T03:06:50.354Z,99146.91
2023-01-21T03:09:42.350Z,99140.41
2023-01-21T03:12:29.994Z,99159.38
2023-01-21T03:15:38.706Z,99146.72
2023-01-21T03:18:33.024Z,99141.78
2023-01-21T03:21:14.662Z,99148.41
2023-01-21T03:23:54.090Z,99144.22
2023-01-21T03:26:38.759Z,99136.78
2023-01-21T03:29:22.629Z,99133.78
2023-01-21T03:32:05.245Z,99135.97
2023-01-21T03:34:42.100Z,99140.06
2023-01-21T03:37:27.585Z,99143.38
2023-01-21T03:40:08.474Z,99155.56
2023-01-21T03:42:47.204Z,99146.72
2023-01-21T03:45:35.386Z,99145.19
2023-01-21T03:48:21.730Z,99156.84
2023-01-21T03:51:14.164Z,99168.97
2023-01-21T03:53:50.402Z,99154.38
2023-01-21T03:56:33.050Z,99159.00
2023-01-21T03:59:14.451Z,99166.94
2023-01-21T04:01:55.639Z,99170.75
2023-01-21T04:04:35.693Z,99176.44
2023-01-21T04:07:13.529Z,99168.47
2023-01-21T04:09:50.193Z,99170.63
2023-01-21T04:12:41.092Z,99177.25
2023-01-21T04:15:14.556Z,99192.91
2023-01-21T04:17:46.232Z,99196.06
2023-01-21T04:20:22.596Z,99205.41
2023-01-21T04:23:00.435Z,99198.72
2023-01-21T04:25:32.563Z,99198.59
2023-01-21T04:28:13.013Z,99201.06
2023-01-21T04:30:57.490Z,99207.41
2023-01-21T04:33:30.801Z,99205.22
2023-01-21T04:36:13.121Z,99209.53
2023-01-21T04:38:53.854Z,99215.50
2023-01-21T04:41:29.057Z,99214.47
2023-01-21T04:44:07.884Z,99233.63
2023-01-21T04:46:46.391Z,99236.81
2023-01-21T04:49:22.108Z,99241.13
2023-01-21T04:51:57.421Z,99249.63
2023-01-21T04:54:38.355Z,99248.44
2023-01-21T04:57:22.431Z,99235.28
2023-01-21T05:00:00.822Z,99236.94
2023-01-21T05:02:42.381Z,99238.28
2023-01-21T05:05:19.937Z,99245.63
2023-01-21T05:08:01.022Z,99261.78
2023-01-21T05:10:45.043Z,99275.09
2023-01-21T05:13:25.337Z,99271.72
2023-01-21T05:16:08.192Z,99277.06
2023-01-21T05:18:48.872Z,99276.41
2023-01-21T05:21:26.933Z,99282.34
2023-01-21T05:24:08.094Z,99277.22
2023-01-21T05:26:49.890Z,99287.16
2023-01-21T05:29:33.803Z,99281.84
2023-01-21T05:32:11.331Z,99285.09
2023-01-21T05:34:49.795Z,99291.03
2023-01-21T05:37:25.417Z,99293.88
2023-01-21T05:40:02.716Z,99293.38
2023-01-21T05:42:43.890Z,99300.97
2023-01-21T05:45:21.860Z,99291.03
2023-01-21T05:47:56.387Z,99300.97
2023-01-21T05:50:33.158Z,99303.66
2023-01-21T05:53:13.884Z,99306.19
2023-01-21T05:55:56.414Z,99309.66
2023-01-21T05:58:34.189Z,99302.34
2023-01-21T06:01:15.350Z,99324.94
2023-01-21T06:03:57.972Z,99320.78
2023-01-21T06:06:34.988Z,99330.97
2023-01-21T06:09:15.041Z,99329.59
2023-01-21T06:11:55.662Z,99335.78
2023-01-21T06:14:31.002Z,99338.56
2023-01-21T06:17:07.909Z,99331.59
2023-01-21T06:19:48.744Z,99330.09
2023-01-21T06:22:23.527Z,99321.09
2023-01-21T06:25:01.052Z,99335.41
2023-01-21T06:27:47.891Z,99335.59
2023-01-21T06:30:25.878Z,99344.25
2023-01-21T06:32:59.408Z,99345.56
2023-01-21T06:35:38.898Z,99347.59
2023-01-21T06:38:17.270Z,99350.22
2023-01-21T06:40:49.956Z,99362.19
2023-01-21T06:43:30.058Z,99356.22
2023-01-21T06:46:11.588Z,99358.06
2023-01-21T06:48:52.195Z,99367.34
2023-01-21T06:51:27.292Z,99372.19
2023-01-21T06:54:10.075Z,99378.19
2023-01-21T06:56:50.686Z,99382.00
2023-01-21T06:59:25.710Z,99387.50
2023-01-21T07:02:01.452Z,99395.47
2023-01-21T07:04:45.179Z,99400.44
2023-01-21T07:07:20.875Z,99396.78
2023-01-21T07:09:56.223Z,99401.28
2023-01-21T07:12:31.903Z,99403.78
2023-01-21T07:15:11.327Z,99401.78
2023-01-21T07:17:46.615Z,99404.59
2023-01-21T07:20:22.020Z,99399.09
2023-01-21T07:23:04.404Z,99412.41
2023-01-21T07:25:45.292Z,99412.25
2023-01-21T07:28:25.310Z,99403.91
2023-01-21T07:31:12.004Z,99406.25
2023-01-21T07:33:53.641Z,99413.56
2023-01-21T07:36:40.787Z,99422.19
2023-01-21T07:39:23.412Z,99432.88
2023-01-21T07:42:01.472Z,99439.00
2023-01-21T07:44:35.993Z,99444.66
2023-01-21T07:47:13.386Z,99454.47
2023-01-21T07:49:46.334Z,99464.63
2023-01-21T07:52:23.803Z,99460.97
2023-01-21T07:55:01.956Z,99474.47
2023-01-21T07:57:42.318Z,99470.78
2023-01-21T08:00:17.319Z,99470.28
2023-01-21T08:02:54.495Z,99470.94
2023-01-21T08:05:30.845Z,99466.81
2023-01-21T08:08:06.669Z,99475.28
2023-01-21T08:10:57.362Z,99466.28
2023-01-21T08:13:33.379Z,99476.59
2023-01-21T08:16:13.709Z,99480.25
2023-01-21T08:18:43.552Z,99487.75
2023-01-21T08:21:21.111Z,99493.09
2023-01-21T08:24:04.782Z,99489.94
2023-01-21T08:26:46.122Z,99492.91
2023-01-21T08:29:24.437Z,99492.25
2023-01-21T08:32:03.767Z,99496.41
2023-01-21T08:34:41.338Z,99500.22
2023-01-21T08:37:14.060Z,99502.38
2023-01-21T08:39:55.225Z,99502.38
2023-01-21T08:42:32.290Z,99493.69
2023-01-21T08:45:15.181Z,99505.53
2023-01-21T08:47:53.416Z,99499.53
2023-01-21T08:50:29.194Z,99507.03
2023-01-21T08:53:12.294Z,99508.53
2023-01-21T08:55:48.622Z,99510.19
2023-01-21T08:58:32.874Z,99502.50
2023-01-21T09:01:15.511Z,99507.03
2023-01-21T09:03:46.389Z,99499.03
2023-01-21T09:06:25.742Z,99509.22
2023-01-21T09:09:03.234Z,99515.72
2023-01-21T09:11:47.457Z,99523.69
2023-01-21T09:14:25.423Z,99524.19
2023-01-21T09:17:03.355Z,99531.19
2023-01-21T09:19:42.381Z,99530.53
2023-01-21T09:22:16.874Z,99522.84
2023-01-21T09:24:52.967Z,99518.47
2023-01-21T09:27:27.747Z,99521.47
2023-01-21T09:30:09.007Z,99521.41
2023-01-21T09:32:44.853Z,99523.13
2023-01-21T09:35:17.812Z,99518.31
2023-01-21T09:37:53.154Z,99523.44
2023-01-21T09:40:31.683Z,99528.94
2023-01-21T09:43:11.607Z,99531.91
2023-01-21T09:45:47.005Z,99526.97
2023-01-21T09:48:38.839Z,99527.13
2023-01-21T09:51:31.665Z,99535.47
2023-01-21T09:54:13.536Z,99522.69
2023-01-21T09:57:02.360Z,99520.53
2023-01-21T09:59:55.991Z,99528.03
2023-01-21T10:03:04.736Z,99523.50
2023-01-21T10:06:00.702Z,99527.81
2023-01-21T10:08:48.554Z,99528.31
2023-01-21T10:11:59.149Z,99521.50
2023-01-21T10:14:46.433Z,99530.31
2023-01-21T10:17:47.621Z,99525.84
2023-01-21T10:20:31.791Z,99519.97
2023-01-21T10:23:31.104Z,99522.81
2023-01-21T10:26:12.617Z,99531.66
2023-01-21T10:28:58.121Z,99533.63
2023-01-21T10:31:54.886Z,99536.13
2023-01-21T10:34:50.922Z,99539.31
2023-01-21T10:37:47.782Z,99546.59
2023-01-21T10:40:56.829Z,99549.41
2023-01-21T10:44:01.777Z,99544.78
2023-01-21T10:47:01.067Z,99549.59
2023-01-21T10:49:58.614Z,99540.28
2023-01-21T10:52:46.392Z,99539.13
2023-01-21T10:55:34.724Z,99544.41
2023-01-21T10:58:30.024Z,99549.91
2023-01-21T11:01:08.030Z,99547.06
2023-01-21T11:03:50.547Z,99551.56
2023-01-21T11:06:32.538Z,99547.91
2023-01-21T11:09:17.086Z,99552.72
2023-01-21T11:11:54.902Z,99554.06
2023-01-21T11:14:39.825Z,99546.34
2023-01-21T11:17:31.815Z,99542.75
2023-01-21T11:20:07.977Z,99549.41
2023-01-21T11:22:52.113Z,99548.56
2023-01-21T11:25:41.545Z,99540.69
2023-01-21T11:28:30.666Z,99546.47
2023-01-21T11:31:23.603Z,99536.19
2023-01-21T11:34:09.723Z,99534.81
2023-01-21T11:37:00.179Z,99542.81
2023-01-21T11:39:48.413Z,99530.66
2023-01-21T11:42:26.779Z,99528.31
2023-01-21T11:45:06.272Z,99527.19
2023-01-21T11:47:55.372Z,99534.19
2023-01-21T11:50:39.079Z,99535.50
2023-01-21T11:53:23.230Z,99533.97
2023-01-21T11:56:05.800Z,99531.09
2023-01-21T11:58:49.373Z,99534.31
2023-01-21T12:01:27.863Z,99534.59
2023-01-21T12:04:06.746Z,99536.44
2023-01-21T12:06:47.607Z,99538.34
2023-01-21T12:09:24.609Z,99534.94
2023-01-21T12:12:31.993Z,99541.44
2023-01-21T12:15:25.779Z,99535.75
2023-01-21T12:18:36.261Z,99535.59
2023-01-21T12:21:16.568Z,99531.09
2023-01-21T12:24:00.912Z,99537.84
2023-01-21T12:26:42.187Z,99540.03
2023-01-21T12:29:55.238Z,99540.63
2023-01-21T12:32:51.527Z,99535.50
2023-01-21T12:35:47.527Z,99545.84
2023-01-21T12:38:41.111Z,99540.72
2023-01-21T12:41:30.936Z,99546.59
2023-01-21T12:44:21.836Z,99549.41
2023-01-21T12:46:59.313Z,99550.88
2023-01-21T12:49:58.852Z,99553.81
2023-01-21T12:53:09.587Z,99555.03
2023-01-21T12:55:47.915Z,99559.72
2023-01-21T12:58:24.302Z,99567.25
2023-01-21T13:01:01.086Z,99569.94
2023-01-21T13:04:04.893Z,99570.91
2023-01-21T13:06:54.710Z,99572.94
2023-01-21T13:10:07.139Z,99567.41
2023-01-21T13:12:43.566Z,99573.06
2023-01-21T13:15:46.002Z,99580.91
2023-01-21T13:18:47.748Z,99583.53
2023-01-21T13:21:42.827Z,99589.38
2023-01-21T13:24:59.890Z,99592.06
2023-01-21T13:27:44.493Z,99593.22
2023-01-21T13:30:41.902Z,99593.69
2023-01-21T13:33:30.599Z,99599.59
2023-01-21T13:36:30.261Z,99599.47
2023-01-21T13:39:44.318Z,99604.84
2023-01-21T13:43:12.121Z,99608.66
2023-01-21T13:46:20.417Z,99605.34
2023-01-21T13:49:24.989Z,99614.19
2023-01-21T13:52:12.923Z,99602.38
2023-01-21T13:55:14.927Z,99599.38
2023-01-21T13:57:54.484Z,99602.53
2023-01-21T14:00:36.777Z,99611.75
2023-01-21T14:03:30.743Z,99605.59
2023-01-21T14:06:16.011Z,99606.06
2023-01-21T14:08:58.247Z,99605.75
2023-01-21T14:11:44.226Z,99609.41
2023-01-21T14:14:49.563Z,99617.06
2023-01-21T14:18:08.833Z,99620.25
2023-01-21T14:21:13.458Z,99623.91
2023-01-21T14:24:03.387Z,99634.75
2023-01-21T14:26:48.599Z,99638.09
2023-01-21T14:29:45.235Z,99644.06
2023-01-21T14:32:42.584Z,99643.22
2023-01-21T14:35:39.313Z,99645.75
2023-01-21T14:38:41.620Z,99649.59
2023-01-21T14:41:12.331Z,99660.06
2023-01-21T14:43:54.938Z,99659.72
2023-01-21T14:46:39.209Z,99654.91
2023-01-21T14:49:33.330Z,99659.25
2023-01-21T14:52:03.670Z,99660.91
2023-01-21T14:54:48.038Z,99667.06
2023-01-21T14:57:37.094Z,99668.75
2023-01-21T15:00:26.864Z,99672.09
2023-01-21T15:03:27.194Z,99676.22
2023-01-21T15:06:13.833Z,99675.91
2023-01-21T15:08:57.947Z,99683.06
2023-01-21T15:11:49.489Z,99687.06
2023-01-21T15:14:34.592Z,99681.22
2023-01-21T15:17:51.941Z,99683.22
2023-01-21T15:21:02.453Z,99680.88
2023-01-21T15:23:35.142Z,99682.22
2023-01-21T15:26:24.705Z,99684.41
2023-01-21T15:29:19.773Z,99688.22
2023-01-21T15:32:01.186Z,99692.03
2023-01-21T15:34:42.695Z,99694.06
2023-01-21T15:37:22.392Z,99692.38
2023-01-21T15:40:01.645Z,99693.53
2023-01-21T15:42:58.171Z,99701.84
2023-01-21T15:45:57.551Z,99706.34
2023-01-21T15:48:43.954Z,99708.81
2023-01-21T15:51:41.010Z,99705.34
2023-01-21T15:54:45.555Z,99708.00
2023-01-21T15:57:50.000Z,99714.31
2023-01-21T16:00:40.972Z,99709.31
2023-01-21T16:03:22.900Z,99722.47
2023-01-21T16:06:25.355Z,99724.00
2023-01-21T16:09:22.572Z,99730.47
2023-01-21T16:12:24.526Z,99733.31
2023-01-21T16:15:46.456Z,99744.47
2023-01-21T16:18:32.169Z,99740.31
2023-01-21T16:21:07.531Z,99754.78
2023-01-21T16:23:49.501Z,99750.78
2023-01-21T16:26:37.705Z,99745.66
2023-01-21T16:29:27.659Z,99745.31
2023-01-21T16:32:00.792Z,99750.69
2023-01-21T16:34:51.579Z,99751.81
2023-01-21T16:37:28.329Z,99759.31
2023-01-21T16:40:28.333Z,99756.75
2023-01-21T16:43:36.560Z,99757.75
2023-01-21T16:46:14.890Z,99763.94
2023-01-21T16:48:57.394Z,99766.97
2023-01-21T16:51:39.297Z,99762.25
2023-01-21T16:54:52.779Z,99771.25
2023-01-21T16:57:37.710Z,99770.22
2023-01-21T17:00:22.839Z,99765.34
2023-01-21T17:03:00.373Z,99762.53
2023-01-21T17:05:46.122Z,99760.41
2023-01-21T17:08:28.137Z,99762.72
2023-01-21T17:11:05.267Z,99761.88
2023-01-21T17:13:47.640Z,99767.69
2023-01-21T17:16:39.840Z,99761.91
2023-01-21T17:19:30.321Z,99766.59
2023-01-21T17:22:10.155Z,99764.06
2023-01-21T17:25:11.240Z,99766.88
2023-01-21T17:27:47.531Z,99774.59
2023-01-21T17:30:35.313Z,99765.94
2023-01-21T17:33:27.535Z,99770.28
2023-01-21T17:36:32.411Z,99765.94
2023-01-21T17:39:11.522Z,99773.91
2023-01-21T17:41:53.183Z,99774.59
2023-01-21T17:44:35.009Z,99777.03
2023-01-21T17:47:10.808Z,99770.22
2023-01-21T17:50:11.391Z,99780.84
2023-01-21T17:53:02.352Z,99779.69
2023-01-21T17:55:57.853Z,99787.22
2023-01-21T17:58:50.349Z,99790.59
2023-01-21T18:01:32.063Z,99782.91
2023-01-21T18:04:04.314Z,99794.19
2023-01-21T18:06:41.933Z,99795.91
2023-01-21T18:09:24.981Z,99796.38
2023-01-21T18:12:01.369Z,99798.56
2023-01-21T18:14:42.135Z,99799.41
2023-01-21T18:17:23.623Z,99808.41
2023-01-21T18:20:04.534Z,99811.75
2023-01-21T18:22:46.751Z,99816.91
2023-01-21T18:25:26.958Z,99819.69
2023-01-21T18:28:11.335Z,99818.19
2023-01-21T18:30:55.052Z,99831.38
2023-01-21T18:33:31.663Z,99833.19
2023-01-21T18:36:12.368Z,99836.91
2023-01-21T18:38:47.916Z,99832.06
2023-01-21T18:41:27.436Z,99835.53
2023-01-21T18:44:13.781Z,99829.41
2023-01-21T18:46:59.971Z,99824.91
2023-01-21T18:49:51.598Z,99826.47
2023-01-21T18:52:29.933Z,99829.06
2023-01-21T18:55:10.704Z,99831.41
2023-01-21T18:57:57.129Z,99836.00
2023-01-21T19:00:38.063Z,99837.69
2023-01-21T19:03:22.878Z,99839.25
2023-01-21T19:06:16.861Z,99837.91
2023-01-21T19:08:59.650Z,99847.00
2023-01-21T19:11:44.314Z,99840.84
2023-01-21T19:14:19.877Z,99851.13
2023-01-21T19:17:01.176Z,99850.13
2023-01-21T19:19:37.354Z,99854.91
2023-01-21T19:22:12.358Z,99861.44
2023-01-21T19:24:57.693Z,99860.81
2023-01-21T19:27:48.204Z,99872.63
2023-01-21T19:30:29.300Z,99875.25
2023-01-21T19:33:09.755Z,99877.19
2023-01-21T19:35:54.240Z,99885.75
2023-01-21T19:38:33.012Z,99879.91
2023-01-21T19:41:12.590Z,99885.44
2023-01-21T19:44:02.799Z,99887.09
2023-01-21T19:46:41.907Z,99884.13
2023-01-21T19:49:26.213Z,99885.75
2023-01-21T19:52:06.563Z,99882.81
2023-01-21T19:54:44.126Z,99875.84
2023-01-21T19:57:29.298Z,99882.13
2023-01-21T20:00:07.250Z,99867.97
2023-01-21T20:02:46.828Z,99873.97
2023-01-21T20:05:29.163Z,99876.44
2023-01-21T20:08:11.820Z,99878.97
2023-01-21T20:10:50.143Z,99886.16
2023-01-21T20:13:28.363Z,99882.75
2023-01-21T20:16:16.071Z,99885.13
2023-01-21T20:18:54.253Z,99887.41
2023-01-21T20:21:40.143Z,99899.88
2023-01-21T20:24:32.907Z,99890.41
2023-01-21T20:27:20.119Z,99887.09
2023-01-21T20:30:15.640Z,99886.31
2023-01-21T20:33:01.491Z,99892.31
2023-01-21T20:35:50.345Z,99892.16
2023-01-21T20:38:30.395Z,99885.78
2023-01-21T20:41:14.807Z,99889.19
2023-01-21T20:43:52.173Z,99895.50
2023-01-21T20:46:39.859Z,99898.66
2023-01-21T20:49:23.794Z,99897.13
2023-01-21T20:52:02.416Z,99902.50
2023-01-21T20:54:43.483Z,99895.66
2023-01-21T20:57:27.675Z,99895.97
2023-01-21T21:00:15.734Z,99909.47
2023-01-21T21:02:58.848Z,99896.56
2023-01-21T21:05:37.414Z,99894.22
2023-01-21T21:08:20.394Z,99900.53
2023-01-21T21:11:06.611Z,99900.91
2023-01-21T21:13:47.098Z,99900.75
2023-01-21T21:16:31.950Z,99911.19
2023-01-21T21:19:11.777Z,99902.50
2023-01-21T21:21:55.489Z,99899.28
2023-01-21T21:24:29.984Z,99899.63
2023-01-21T21:27:18.205Z,99899.78
2023-01-21T21:30:05.331Z,99909.59
2023-01-21T21:32:42.535Z,99911.00
2023-01-21T21:35:42.086Z,99912.44
2023-01-21T21:38:32.289Z,99911.75
2023-01-21T21:41:26.954Z,99909.44
2023-01-21T21:44:02.125Z,99910.59
2023-01-21T21:46:56.316Z,99917.25
2023-01-21T21:49:43.289Z,99904.41
2023-01-21T21:52:26.811Z,99910.53
2023-01-21T21:55:14.643Z,99913.16
2023-01-21T21:57:52.668Z,99914.88
2023-01-21T22:00:31.218Z,99910.53
2023-01-21T22:03:14.954Z,99919.53
2023-01-21T22:06:01.809Z,99912.88
2023-01-21T22:08:43.671Z,99906.56
2023-01-21T22:11:25.230Z,99899.72
2023-01-21T22:14:08.192Z,99903.00
2023-01-21T22:16:49.940Z,99909.19
2023-01-21T22:19:30.057Z,99910.50
2023-01-21T22:22:11.617Z,99901.47
2023-01-21T22:24:50.404Z,99905.00
2023-01-21T22:27:32.066Z,99912.88
2023-01-21T22:30:09.544Z,99905.88
2023-01-21T22:32:50.440Z,99905.06
2023-01-21T22:35:28.632Z,99911.28
2023-01-21T22:38:10.113Z,99914.97
2023-01-21T22:40:48.727Z,99910.97
2023-01-21T22:43:27.283Z,99913.97
2023-01-21T22:46:12.189Z,99907.25
2023-01-21T22:48:50.739Z,99907.53
2023-01-21T22:51:32.341Z,99904.94
2023-01-21T22:54:13.509Z,99903.59
2023-01-21T22:56:55.411Z,99888.97
2023-01-21T22:59:32.052Z,99884.09
2023-01-21T23:02:18.582Z,99887.78
2023-01-21T23:04:55.354Z,99883.25
2023-01-21T23:07:36.992Z,99887.44
2023-01-21T23:10:22.890Z,99878.59
2023-01-21T23:13:00.947Z,99874.91
2023-01-21T23:15:39.624Z,99882.22
2023-01-21T23:18:25.225Z,99888.69
2023-01-21T23:21:18.743Z,99892.91
2023-01-21T23:23:54.109Z,99902.41
2023-01-21T23:26:31.768Z,99907.72
2023-01-21T23:29:27.390Z,99902.84
2023-01-21T23:32:11.280Z,99906.22
2023-01-21T23:34:52.017Z,99915.72
2023-01-21T23:37:29.098Z,99926.88
2023-01-21T23:40:07.256Z,99920.22
2023-01-21T23:42:49.663Z,99910.88
2023-01-21T23:45:27.767Z,99917.38
2023-01-21T23:48:05.843Z,99915.13
2023-01-21T23:50:46.923Z,99915.75
2023-01-21T23:53:24.569Z,99917.94
2023-01-21T23:56:15.556Z,99918.75
2023-01-21T23:58:54.164Z,99923.00
